Main page
METAR-TAF:

METAR-TAF

Airports :

MOD St Athan

St Athan, Wales

latitude: 51-24N, longitude: 003-26W, elevation: 50 m

Current weather observation

The report was made 57 minutes ago, at 03:50 UTC
Wind 10 kt from the West/Northwest
Temperature 17°C
Humidity 72%
Pressure 1016 hPa
Visibility 10 km or more

METAR: EGDX 220350Z AUTO 30010KT 9999 BKN070/// 17/12 Q1016

Time: 05:47 (04:47 UTC)

Forecast

The report was made 15 hours and 12 minutes ago, at 13:35 UTC
Forecast valid from 21 at 15 UTC to 21 at 18 UTC
Wind 8 kt from the West
Visibility 10 km or more
Scattered clouds at a height of 3000 ft

TAF: EGDX 211335Z 2115/2118 26008KT 9999 SCT030

Weather observations and forecasts of more than 4000 airports (METAR and TAF reports).

The available stations are represented by yellow and red dots on the map.

Hover mouse over dot to see the name of the station.

Then click to see weather observations and forecasts.

To change the map : click on the green buttons with a black cross to zoom in, on the green button with a dash to zoom out, or on the green arrows for adjacent maps.


METAR-TAF: